EST,Max TemperatureF,Mean TemperatureF,Min TemperatureF,Max Dew PointF,MeanDew PointF,Min DewpointF,Max Humidity, Mean Humidity, Min Humidity, Max Sea Level PressureIn, Mean Sea Level PressureIn, Min Sea Level PressureIn, Max VisibilityMiles, Mean VisibilityMiles, Min VisibilityMiles, Max Wind SpeedMPH, Mean Wind SpeedMPH, Max Gust SpeedMPH,PrecipitationIn, CloudCover, Events, WindDirDegrees
2013-2-1,37,30,24,30,13,5,93,49,30,30.42,30.16,29.86,10,10,10,20,7,37,0.00,1,Snow,254
2013-2-2,37,26,14,23,12,7,93,54,30,30.43,30.28,30.05,10,10,7,10,3,,0.00,3,,160
2013-2-3,44,38,33,32,27,21,87,66,39,30.03,29.94,29.85,10,10,10,15,5,21,0.00,5,,250
2013-2-4,44,34,23,27,22,18,86,59,36,30.15,30.06,30.00,10,10,10,10,3,,0.00,1,,182
2013-2-5,55,44,32,34,32,27,100,66,41,30.00,29.95,29.88,10,10,10,9,3,9,0.00,4,,182
2013-2-6,59,44,30,36,32,27,100,67,31,30.34,30.15,29.97,10,10,10,12,2,17,0.00,0,,346
2013-2-7,46,38,30,41,35,28,100,86,62,30.40,30.30,30.09,10,8,2,10,5,18,0.78,3,Rain,23
2013-2-8,50,44,37,43,39,30,100,87,57,30.07,29.87,29.79,10,8,2,18,11,28,0.65,5,Rain,292
2013-2-9,46,35,24,30,24,18,93,63,32,30.39,30.22,29.99,10,10,10,12,6,20,0.00,0,,269
2013-2-10,48,34,21,32,25,19,100,68,34,30.52,30.42,30.27,10,10,10,9,2,,0.00,1,,116
2013-2-11,60,50,41,59,50,32,100,93,66,30.25,30.03,29.89,10,8,2,13,6,17,0.08,6,Rain,173
2013-2-12,57,50,42,50,35,28,82,57,36,30.07,29.99,29.90,10,10,10,12,6,16,0.00,1,,232
2013-2-13,50,44,37,45,43,36,100,96,58,29.96,29.78,29.64,10,7,1,10,2,25,0.17,8,Rain,203
2013-2-14,46,38,30,37,34,30,100,88,62,30.10,30.01,29.82,10,8,0,7,3,,0.00,3,Fog,223
2013-2-15,60,44,28,37,32,28,100,76,31,30.10,30.03,29.95,10,8,0,9,2,17,0.00,1,Fog,193
2013-2-16,42,37,32,36,33,30,100,92,70,29.99,29.91,29.83,10,7,0,16,8,22,0.06,6,Rain-Snow,324
2013-2-17,32,28,23,30,16,9,100,62,38,30.29,30.07,29.88,10,10,10,17,8,28,0.00,2,,271
2013-2-18,46,32,17,23,16,12,93,56,27,30.44,30.35,30.28,10,10,10,9,2,,0.00,0,,165
2013-2-19,51,40,30,50,37,25,100,86,67,30.28,30.03,29.83,10,10,4,13,5,25,0.02,3,Rain,169
2013-2-20,46,39,32,37,20,14,93,49,27,30.15,30.04,29.93,10,10,10,14,7,23,0.00,0,,251
2013-2-21,48,34,21,23,20,18,93,58,34,30.31,30.21,30.14,10,10,10,9,2,,0.00,0,,329
2013-2-22,41,36,32,36,26,19,100,69,53,30.38,30.30,30.19,10,9,2,10,4,,0.03,7,Rain-Snow,28
2013-2-23,42,38,35,43,38,36,100,100,93,30.18,29.97,29.83,10,6,2,12,5,,0.27,7,Rain-Snow,310
2013-2-24,53,44,35,45,40,27,100,89,57,30.10,29.92,29.80,10,7,2,14,3,21,0.06,5,Rain,319
2013-2-25,41,34,26,30,26,23,100,74,49,30.25,30.20,30.11,10,10,10,10,3,,0.00,0,,8
2013-2-26,53,40,28,54,42,27,100,97,87,30.22,29.91,29.59,10,7,0,18,5,28,0.79,6,Fog-Rain,46
2013-2-27,57,45,33,52,41,34,100,82,44,29.75,29.69,29.59,10,10,0,14,5,21,0.00,3,Fog,224
2013-2-28,50,42,33,37,31,27,100,68,40,29.83,29.74,29.68,10,10,10,16,5,23,0.00,4,,254